sensor_id;sensor_type;location;lat;lon;timestamp;pressure;altitude;pressure_sealevel;temperature;humidity
40490;BME280;26196;52.302;10.572;2023-02-22T00:02:57;100752.34;;;13.68;60.41
40490;BME280;26196;52.302;10.572;2023-02-22T00:11:56;100745.38;;;13.67;60.19
40490;BME280;26196;52.302;10.572;2023-02-22T00:15:58;100745.38;;;13.67;60.18
40490;BME280;26196;52.302;10.572;2023-02-22T00:19:59;100742.78;;;13.65;60.36
40490;BME280;26196;52.302;10.572;2023-02-22T00:24:33;100729.72;;;13.64;60.21
40490;BME280;26196;52.302;10.572;2023-02-22T00:28:36;100741.09;;;13.64;59.97
40490;BME280;26196;52.302;10.572;2023-02-22T00:32:36;100719.75;;;13.48;59.87
40490;BME280;26196;52.302;10.572;2023-02-22T00:37:10;100637.22;;;13.02;59.76
40490;BME280;26196;52.302;10.572;2023-02-22T00:41:11;100737.75;;;13.59;59.42
40490;BME280;26196;52.302;10.572;2023-02-22T00:45:14;100723.81;;;13.57;59.56
40490;BME280;26196;52.302;10.572;2023-02-22T00:49:15;100728.09;;;13.60;59.70
40490;BME280;26196;52.302;10.572;2023-02-22T00:53:50;100728.13;;;13.58;59.45
40490;BME280;26196;52.302;10.572;2023-02-22T00:57:50;100733.50;;;13.55;59.44
40490;BME280;26196;52.302;10.572;2023-02-22T01:01:51;100725.75;;;13.52;59.60
40490;BME280;26196;52.302;10.572;2023-02-22T01:05:51;100723.06;;;13.53;59.83
40490;BME280;26196;52.302;10.572;2023-02-22T01:09:52;100722.09;;;13.56;59.51
40490;BME280;26196;52.302;10.572;2023-02-22T01:13:53;100729.91;;;13.57;59.02
40490;BME280;26196;52.302;10.572;2023-02-22T01:18:28;100714.25;;;13.54;59.40
40490;BME280;26196;52.302;10.572;2023-02-22T01:22:28;100662.00;;;13.20;59.36
40490;BME280;26196;52.302;10.572;2023-02-22T01:27:03;100715.94;;;13.55;59.31
40490;BME280;26196;52.302;10.572;2023-02-22T01:31:04;100704.06;;;13.45;59.21
40490;BME280;26196;52.302;10.572;2023-02-22T01:35:07;100709.22;;;13.48;59.22
40490;BME280;26196;52.302;10.572;2023-02-22T01:39:41;100706.59;;;13.48;58.92
40490;BME280;26196;52.302;10.572;2023-02-22T01:43:41;100700.41;;;13.49;59.23
40490;BME280;26196;52.302;10.572;2023-02-22T01:47:42;100686.56;;;13.44;58.75
40490;BME280;26196;52.302;10.572;2023-02-22T01:51:48;100677.13;;;13.39;59.11
40490;BME280;26196;52.302;10.572;2023-02-22T01:55:51;100693.44;;;13.48;59.33
40490;BME280;26196;52.302;10.572;2023-02-22T01:59:57;100690.94;;;13.45;58.76
40490;BME280;26196;52.302;10.572;2023-02-22T02:04:01;100631.66;;;13.11;59.04
40490;BME280;26196;52.302;10.572;2023-02-22T02:08:35;100682.16;;;13.45;58.96
40490;BME280;26196;52.302;10.572;2023-02-22T02:12:46;100682.22;;;13.43;58.49
40490;BME280;26196;52.302;10.572;2023-02-22T02:17:16;100678.78;;;13.41;58.68
40490;BME280;26196;52.302;10.572;2023-02-22T02:21:41;100672.69;;;13.41;58.62
40490;BME280;26196;52.302;10.572;2023-02-22T02:34:47;100655.44;;;13.32;58.12
40490;BME280;26196;52.302;10.572;2023-02-22T02:39:42;100661.59;;;13.32;57.74
40490;BME280;26196;52.302;10.572;2023-02-22T02:47:48;100636.63;;;13.19;58.46
40490;BME280;26196;52.302;10.572;2023-02-22T02:51:52;100651.22;;;13.28;57.85
40490;BME280;26196;52.302;10.572;2023-02-22T02:55:54;100650.25;;;13.30;57.94
40490;BME280;26196;52.302;10.572;2023-02-22T02:59:54;100641.00;;;13.19;58.03
40490;BME280;26196;52.302;10.572;2023-02-22T03:04:14;100651.31;;;13.25;58.30
40490;BME280;26196;52.302;10.572;2023-02-22T03:08:30;100646.19;;;13.22;57.92
40490;BME280;26196;52.302;10.572;2023-02-22T03:17:20;100641.06;;;13.17;57.47
40490;BME280;26196;52.302;10.572;2023-02-22T03:25:48;100640.22;;;13.17;57.33
40490;BME280;26196;52.302;10.572;2023-02-22T03:34:22;100624.72;;;13.09;56.75
40490;BME280;26196;52.302;10.572;2023-02-22T03:38:26;100629.91;;;13.10;56.38
40490;BME280;26196;52.302;10.572;2023-02-22T03:42:31;100628.13;;;13.11;57.04
40490;BME280;26196;52.302;10.572;2023-02-22T03:46:35;100632.63;;;13.09;56.73
40490;BME280;26196;52.302;10.572;2023-02-22T03:50:37;100633.47;;;13.09;56.82
40490;BME280;26196;52.302;10.572;2023-02-22T03:55:12;100635.16;;;13.10;56.80
40490;BME280;26196;52.302;10.572;2023-02-22T03:59:13;100633.47;;;13.09;56.29
40490;BME280;26196;52.302;10.572;2023-02-22T04:03:13;100626.44;;;13.10;56.56
40490;BME280;26196;52.302;10.572;2023-02-22T04:07:15;100611.94;;;12.98;56.87
40490;BME280;26196;52.302;10.572;2023-02-22T04:11:49;100629.91;;;13.10;56.63
40490;BME280;26196;52.302;10.572;2023-02-22T04:25:04;100633.66;;;13.03;56.75
40490;BME280;26196;52.302;10.572;2023-02-22T04:29:05;100631.97;;;13.02;56.40
40490;BME280;26196;52.302;10.572;2023-02-22T04:33:39;100631.09;;;13.02;56.45
40490;BME280;26196;52.302;10.572;2023-02-22T04:38:16;100628.47;;;13.02;56.17
40490;BME280;26196;52.302;10.572;2023-02-22T04:42:53;100620.72;;;12.99;55.93
40490;BME280;26196;52.302;10.572;2023-02-22T04:46:54;100621.69;;;12.96;55.85
40490;BME280;26196;52.302;10.572;2023-02-22T04:51:29;100617.28;;;12.97;55.05
40490;BME280;26196;52.302;10.572;2023-02-22T04:56:04;100614.81;;;12.92;55.43
40490;BME280;26196;52.302;10.572;2023-02-22T05:00:05;100609.53;;;12.92;55.14
40490;BME280;26196;52.302;10.572;2023-02-22T05:08:40;100596.78;;;12.81;55.29
40490;BME280;26196;52.302;10.572;2023-02-22T05:13:17;100601.81;;;12.87;55.00
40490;BME280;26196;52.302;10.572;2023-02-22T05:21:55;100611.47;;;12.87;55.14
40490;BME280;26196;52.302;10.572;2023-02-22T05:26:29;100613.41;;;12.82;54.83
40490;BME280;26196;52.302;10.572;2023-02-22T05:31:07;100616.00;;;12.83;54.23
40490;BME280;26196;52.302;10.572;2023-02-22T05:35:41;100603.94;;;12.78;54.84
40490;BME280;26196;52.302;10.572;2023-02-22T05:40:21;100603.13;;;12.76;54.62
40490;BME280;26196;52.302;10.572;2023-02-22T05:44:22;100599.56;;;12.77;54.45
40490;BME280;26196;52.302;10.572;2023-02-22T05:49:00;100601.38;;;12.75;54.23
40490;BME280;26196;52.302;10.572;2023-02-22T05:53:00;100598.06;;;12.69;54.11
40490;BME280;26196;52.302;10.572;2023-02-22T05:57:35;100595.41;;;12.71;54.54
40490;BME280;26196;52.302;10.572;2023-02-22T06:01:36;100599.91;;;12.67;54.21
40490;BME280;26196;52.302;10.572;2023-02-22T06:06:10;100599.06;;;12.67;54.22
40490;BME280;26196;52.302;10.572;2023-02-22T06:10:10;100596.47;;;12.65;54.17
40490;BME280;26196;52.302;10.572;2023-02-22T06:14:46;100603.44;;;12.66;53.90
40490;BME280;26196;52.302;10.572;2023-02-22T06:23:25;100604.38;;;12.64;53.68
40490;BME280;26196;52.302;10.572;2023-02-22T06:27:25;100597.31;;;12.66;53.87
40490;BME280;26196;52.302;10.572;2023-02-22T06:31:29;100592.91;;;12.66;53.60
40490;BME280;26196;52.302;10.572;2023-02-22T06:35:30;100567.97;;;12.55;53.88
40490;BME280;26196;52.302;10.572;2023-02-22T06:39:31;100586.06;;;12.62;53.63
40490;BME280;26196;52.302;10.572;2023-02-22T06:43:31;100593.94;;;12.62;53.85
40490;BME280;26196;52.302;10.572;2023-02-22T06:48:09;100594.81;;;12.63;53.60
40490;BME280;26196;52.302;10.572;2023-02-22T06:52:46;100588.69;;;12.62;53.48
40490;BME280;26196;52.302;10.572;2023-02-22T06:57:20;100589.59;;;12.61;53.97
40490;BME280;26196;52.302;10.572;2023-02-22T07:01:58;100586.19;;;12.59;53.76
40490;BME280;26196;52.302;10.572;2023-02-22T07:06:32;100581.00;;;12.56;53.79
40490;BME280;26196;52.302;10.572;2023-02-22T07:11:10;100581.81;;;12.58;53.91
40490;BME280;26196;52.302;10.572;2023-02-22T07:15:44;100576.53;;;12.60;53.40
40490;BME280;26196;52.302;10.572;2023-02-22T07:33:35;100576.69;;;12.55;54.27
40490;BME280;26196;52.302;10.572;2023-02-22T07:38:09;100585.38;;;12.57;53.66
40490;BME280;26196;52.302;10.572;2023-02-22T07:42:10;100575.75;;;12.56;53.57
40490;BME280;26196;52.302;10.572;2023-02-22T07:46:47;100583.19;;;12.70;54.22
40490;BME280;26196;52.302;10.572;2023-02-22T07:51:23;100581.41;;;12.70;53.73
40490;BME280;26196;52.302;10.572;2023-02-22T07:55:26;100591.19;;;12.67;53.57
40490;BME280;26196;52.302;10.572;2023-02-22T08:00:01;100588.59;;;12.65;53.66
40490;BME280;26196;52.302;10.572;2023-02-22T08:08:51;100568.50;;;12.64;54.24
40490;BME280;26196;52.302;10.572;2023-02-22T08:12:52;100570.22;;;12.65;54.08
40490;BME280;26196;52.302;10.572;2023-02-22T08:16:53;100577.28;;;12.63;54.17
40490;BME280;26196;52.302;10.572;2023-02-22T08:20:53;100564.16;;;12.63;54.50
40490;BME280;26196;52.302;10.572;2023-02-22T08:24:54;100571.03;;;12.67;53.93
40490;BME280;26196;52.302;10.572;2023-02-22T08:28:54;100570.22;;;12.65;54.35
40490;BME280;26196;52.302;10.572;2023-02-22T08:33:28;100567.59;;;12.65;54.63
40490;BME280;26196;52.302;10.572;2023-02-22T08:37:29;100548.66;;;12.56;54.83
40490;BME280;26196;52.302;10.572;2023-02-22T08:41:29;100547.56;;;12.61;54.79
40490;BME280;26196;52.302;10.572;2023-02-22T08:45:29;100566.50;;;12.71;55.11
40490;BME280;26196;52.302;10.572;2023-02-22T08:54:07;100564.72;;;12.72;55.42
40490;BME280;26196;52.302;10.572;2023-02-22T08:58:08;100565.59;;;12.72;54.59
40490;BME280;26196;52.302;10.572;2023-02-22T09:02:43;100561.09;;;12.76;55.25
40490;BME280;26196;52.302;10.572;2023-02-22T09:06:43;100556.75;;;12.75;55.18
40490;BME280;26196;52.302;10.572;2023-02-22T09:10:48;100536.09;;;12.64;55.44
40490;BME280;26196;52.302;10.572;2023-02-22T09:14:49;100540.34;;;12.68;55.46
40490;BME280;26196;52.302;10.572;2023-02-22T09:18:49;100547.16;;;12.74;55.63
40490;BME280;26196;52.302;10.572;2023-02-22T09:22:50;100546.06;;;12.79;55.37
40490;BME280;26196;52.302;10.572;2023-02-22T09:26:51;100545.09;;;12.82;55.58
40490;BME280;26196;52.302;10.572;2023-02-22T09:31:28;100539.75;;;12.85;56.27
40490;BME280;26196;52.302;10.572;2023-02-22T09:35:28;100534.47;;;12.85;56.00
40490;BME280;26196;52.302;10.572;2023-02-22T09:39:29;100529.03;;;12.91;56.27
40490;BME280;26196;52.302;10.572;2023-02-22T09:47:40;100518.44;;;12.92;56.79
40490;BME280;26196;52.302;10.572;2023-02-22T09:51:57;100520.91;;;12.97;57.50
40490;BME280;26196;52.302;10.572;2023-02-22T09:56:04;100512.19;;;12.97;57.25
40490;BME280;26196;52.302;10.572;2023-02-22T10:08:59;100511.78;;;13.07;57.64
40490;BME280;26196;52.302;10.572;2023-02-22T10:13:30;100494.19;;;13.09;57.89
40490;BME280;26196;52.302;10.572;2023-02-22T10:22:24;100488.00;;;13.10;58.95
40490;BME280;26196;52.302;10.572;2023-02-22T10:26:47;100474.06;;;13.08;58.83
40490;BME280;26196;52.302;10.572;2023-02-22T10:30:54;100485.94;;;13.19;58.35
40490;BME280;26196;52.302;10.572;2023-02-22T10:34:59;100481.59;;;13.18;59.25
40490;BME280;26196;52.302;10.572;2023-02-22T10:39:27;100481.50;;;13.21;58.82
40490;BME280;26196;52.302;10.572;2023-02-22T10:44:03;100479.66;;;13.23;59.00
40490;BME280;26196;52.302;10.572;2023-02-22T10:48:10;100471.91;;;13.20;58.91
40490;BME280;26196;52.302;10.572;2023-02-22T10:52:21;100476.78;;;13.30;59.33
40490;BME280;26196;52.302;10.572;2023-02-22T10:56:23;100471.44;;;13.32;59.04
40490;BME280;26196;52.302;10.572;2023-02-22T11:00:59;100477.50;;;13.34;58.79
40490;BME280;26196;52.302;10.572;2023-02-22T11:05:01;100453.97;;;13.31;59.15
40490;BME280;26196;52.302;10.572;2023-02-22T11:09:13;100471.13;;;13.40;59.69
40490;BME280;26196;52.302;10.572;2023-02-22T11:13:36;100472.00;;;13.40;59.58
40490;BME280;26196;52.302;10.572;2023-02-22T11:17:38;100463.16;;;13.43;59.42
40490;BME280;26196;52.302;10.572;2023-02-22T11:21:40;100456.91;;;13.45;59.61
40490;BME280;26196;52.302;10.572;2023-02-22T11:25:41;100442.34;;;13.37;59.69
40490;BME280;26196;52.302;10.572;2023-02-22T11:29:42;100460.22;;;13.50;59.55
40490;BME280;26196;52.302;10.572;2023-02-22T11:38:28;100453.06;;;13.54;59.66
40490;BME280;26196;52.302;10.572;2023-02-22T11:42:29;100442.41;;;13.57;59.81
40490;BME280;26196;52.302;10.572;2023-02-22T11:46:33;100433.53;;;13.60;60.09
40490;BME280;26196;52.302;10.572;2023-02-22T11:55:34;100421.97;;;13.64;60.23
40490;BME280;26196;52.302;10.572;2023-02-22T12:00:31;100408.69;;;13.67;60.96
40490;BME280;26196;52.302;10.572;2023-02-22T12:09:12;100401.38;;;13.73;59.91
40490;BME280;26196;52.302;10.572;2023-02-22T12:26:27;100381.66;;;13.84;60.68
40490;BME280;26196;52.302;10.572;2023-02-22T12:35:14;100384.16;;;13.87;60.27
40490;BME280;26196;52.302;10.572;2023-02-22T12:43:48;100382.19;;;13.92;60.61
40490;BME280;26196;52.302;10.572;2023-02-22T12:52:38;100363.59;;;13.96;60.37
40490;BME280;26196;52.302;10.572;2023-02-22T12:56:49;100360.81;;;13.99;60.51
40490;BME280;26196;52.302;10.572;2023-02-22T13:01:20;100354.56;;;14.02;60.82
40490;BME280;26196;52.302;10.572;2023-02-22T13:05:23;100348.38;;;14.03;60.63
40490;BME280;26196;52.302;10.572;2023-02-22T13:13:44;100342.84;;;14.09;60.68
40490;BME280;26196;52.302;10.572;2023-02-22T13:18:15;100337.44;;;14.12;60.66
40490;BME280;26196;52.302;10.572;2023-02-22T13:22:25;100325.91;;;14.15;60.40
40490;BME280;26196;52.302;10.572;2023-02-22T13:53:20;100301.38;;;14.33;61.07
40490;BME280;26196;52.302;10.572;2023-02-22T13:57:59;100294.28;;;14.35;60.81
40490;BME280;26196;52.302;10.572;2023-02-22T14:11:49;100284.38;;;14.40;60.60
40490;BME280;26196;52.302;10.572;2023-02-22T14:16:27;100285.97;;;14.44;60.43
40490;BME280;26196;52.302;10.572;2023-02-22T14:20:35;100283.25;;;14.46;60.61
40490;BME280;26196;52.302;10.572;2023-02-22T14:25:03;100280.56;;;14.48;61.02
40490;BME280;26196;52.302;10.572;2023-02-22T14:29:47;100278.72;;;14.50;60.34
40490;BME280;26196;52.302;10.572;2023-02-22T14:34:01;100265.00;;;14.41;60.90
40490;BME280;26196;52.302;10.572;2023-02-22T14:38:05;100280.28;;;14.54;60.59
40490;BME280;26196;52.302;10.572;2023-02-22T14:42:40;100278.44;;;14.56;60.81
40490;BME280;26196;52.302;10.572;2023-02-22T14:47:18;100270.47;;;14.57;60.85
40490;BME280;26196;52.302;10.572;2023-02-22T14:51:24;100267.75;;;14.59;60.46
40490;BME280;26196;52.302;10.572;2023-02-22T14:56:03;100269.47;;;14.60;60.34
40490;BME280;26196;52.302;10.572;2023-02-22T15:00:13;100263.19;;;14.62;60.55
40490;BME280;26196;52.302;10.572;2023-02-22T15:08:24;100261.34;;;14.64;61.09
40490;BME280;26196;52.302;10.572;2023-02-22T15:13:02;100257.69;;;14.67;60.63
40490;BME280;26196;52.302;10.572;2023-02-22T15:17:37;100255.00;;;14.69;60.56
40490;BME280;26196;52.302;10.572;2023-02-22T15:21:44;100215.50;;;14.50;61.01
40490;BME280;26196;52.302;10.572;2023-02-22T15:25:48;100238.47;;;14.65;60.83
40490;BME280;26196;52.302;10.572;2023-02-22T15:29:56;100253.00;;;14.74;60.39
40490;BME280;26196;52.302;10.572;2023-02-22T15:34:16;100227.88;;;14.66;60.13
40490;BME280;26196;52.302;10.572;2023-02-22T15:38:34;100244.16;;;14.75;59.89
40490;BME280;26196;52.302;10.572;2023-02-22T15:42:45;100240.72;;;14.73;60.07
40490;BME280;26196;52.302;10.572;2023-02-22T15:47:14;100246.63;;;14.78;59.83
40490;BME280;26196;52.302;10.572;2023-02-22T15:51:16;100252.78;;;14.78;59.61
40490;BME280;26196;52.302;10.572;2023-02-22T15:55:57;100244.88;;;14.78;59.34
40490;BME280;26196;52.302;10.572;2023-02-22T16:00:34;100248.38;;;14.79;59.47
40490;BME280;26196;52.302;10.572;2023-02-22T16:05:07;100247.34;;;14.81;58.81
40490;BME280;26196;52.302;10.572;2023-02-22T16:09:11;100250.00;;;14.81;59.53
40490;BME280;26196;52.302;10.572;2023-02-22T16:13:43;100242.94;;;14.82;59.22
40490;BME280;26196;52.302;10.572;2023-02-22T16:17:50;100248.25;;;14.80;58.99
40490;BME280;26196;52.302;10.572;2023-02-22T16:21:55;100248.22;;;14.82;59.03
40490;BME280;26196;52.302;10.572;2023-02-22T16:26:32;100249.06;;;14.82;59.13
40490;BME280;26196;52.302;10.572;2023-02-22T16:31:07;100246.34;;;14.84;59.13
40490;BME280;26196;52.302;10.572;2023-02-22T16:35:41;100250.84;;;14.82;59.03
40490;BME280;26196;52.302;10.572;2023-02-22T16:39:50;100255.09;;;14.84;58.87
40490;BME280;26196;52.302;10.572;2023-02-22T16:44:25;100253.31;;;14.85;59.08
40490;BME280;26196;52.302;10.572;2023-02-22T16:49:00;100250.78;;;14.83;58.94
40490;BME280;26196;52.302;10.572;2023-02-22T16:53:36;100254.16;;;14.85;58.84
40490;BME280;26196;52.302;10.572;2023-02-22T17:02:13;100255.91;;;14.86;58.67
40490;BME280;26196;52.302;10.572;2023-02-22T17:06:48;100255.91;;;14.86;58.90
40490;BME280;26196;52.302;10.572;2023-02-22T17:10:50;100259.38;;;14.87;58.71
40490;BME280;26196;52.302;10.572;2023-02-22T17:15:27;100260.31;;;14.86;58.72
40490;BME280;26196;52.302;10.572;2023-02-22T17:20:01;100261.94;;;14.88;58.41
40490;BME280;26196;52.302;10.572;2023-02-22T17:24:10;100259.31;;;14.88;58.45
40490;BME280;26196;52.302;10.572;2023-02-22T17:28:42;100261.84;;;14.90;58.90
40490;BME280;26196;52.302;10.572;2023-02-22T17:33:19;100259.16;;;14.92;58.47
40490;BME280;26196;52.302;10.572;2023-02-22T17:37:54;100263.50;;;14.93;58.54
40490;BME280;26196;52.302;10.572;2023-02-22T17:41:54;100263.44;;;14.94;58.35
40490;BME280;26196;52.302;10.572;2023-02-22T17:46:30;100265.97;;;14.96;58.47
40490;BME280;26196;52.302;10.572;2023-02-22T17:51:06;100270.22;;;14.98;58.15
40490;BME280;26196;52.302;10.572;2023-02-22T17:55:41;100270.31;;;14.97;58.29
40490;BME280;26196;52.302;10.572;2023-02-22T17:59:41;100264.44;;;14.92;58.08
40490;BME280;26196;52.302;10.572;2023-02-22T18:03:42;100275.66;;;14.95;58.37
40490;BME280;26196;52.302;10.572;2023-02-22T18:08:16;100283.50;;;14.97;58.01
40490;BME280;26196;52.302;10.572;2023-02-22T18:17:29;100271.97;;;14.99;58.05
40490;BME280;26196;52.302;10.572;2023-02-22T18:21:30;100274.66;;;14.98;58.03
40490;BME280;26196;52.302;10.572;2023-02-22T18:26:04;100279.94;;;14.98;57.72
40490;BME280;26196;52.302;10.572;2023-02-22T18:30:05;100274.81;;;14.95;57.87
40490;BME280;26196;52.302;10.572;2023-02-22T18:34:05;100274.09;;;14.91;57.92
40490;BME280;26196;52.302;10.572;2023-02-22T18:38:06;100286.84;;;15.00;57.79
40490;BME280;26196;52.302;10.572;2023-02-22T18:42:13;100283.41;;;14.98;57.34
40490;BME280;26196;52.302;10.572;2023-02-22T18:56:06;100280.72;;;15.00;57.41
40490;BME280;26196;52.302;10.572;2023-02-22T19:00:09;100279.78;;;15.01;57.33
40490;BME280;26196;52.302;10.572;2023-02-22T19:04:10;100278.06;;;15.00;57.11
40490;BME280;26196;52.302;10.572;2023-02-22T19:08:13;100284.88;;;15.04;58.03
40490;BME280;26196;52.302;10.572;2023-02-22T19:12:13;100277.69;;;15.07;57.88
40490;BME280;26196;52.302;10.572;2023-02-22T19:16:17;100280.19;;;15.10;58.10
40490;BME280;26196;52.302;10.572;2023-02-22T19:20:21;100276.84;;;15.07;58.11
40490;BME280;26196;52.302;10.572;2023-02-22T19:24:58;100275.84;;;15.09;57.94
40490;BME280;26196;52.302;10.572;2023-02-22T19:29:34;100272.28;;;15.10;57.42
40490;BME280;26196;52.302;10.572;2023-02-22T19:33:38;100275.75;;;15.11;57.20
40490;BME280;26196;52.302;10.572;2023-02-22T19:38:13;100276.75;;;15.08;57.03
40490;BME280;26196;52.302;10.572;2023-02-22T19:42:13;100275.91;;;15.08;56.82
40490;BME280;26196;52.302;10.572;2023-02-22T19:46:48;100274.22;;;15.07;56.85
40490;BME280;26196;52.302;10.572;2023-02-22T19:51:27;100269.00;;;15.05;56.81
40490;BME280;26196;52.302;10.572;2023-02-22T19:56:05;100269.84;;;15.06;56.78
40490;BME280;26196;52.302;10.572;2023-02-22T20:00:37;100259.31;;;15.06;56.70
40490;BME280;26196;52.302;10.572;2023-02-22T20:05:14;100268.16;;;15.05;56.59
40490;BME280;26196;52.302;10.572;2023-02-22T20:09:49;100266.38;;;15.05;56.56
40490;BME280;26196;52.302;10.572;2023-02-22T20:14:26;100270.97;;;15.02;56.28
40490;BME280;26196;52.302;10.572;2023-02-22T20:19:01;100272.66;;;15.03;56.25
40490;BME280;26196;52.302;10.572;2023-02-22T20:28:14;100271.09;;;14.99;56.12
40490;BME280;26196;52.302;10.572;2023-02-22T20:32:48;100275.44;;;15.00;56.29
40490;BME280;26196;52.302;10.572;2023-02-22T20:42:02;100283.19;;;15.03;55.96
40490;BME280;26196;52.302;10.572;2023-02-22T20:46:39;100273.72;;;14.99;56.10
40490;BME280;26196;52.302;10.572;2023-02-22T20:51:17;100285.13;;;14.99;56.00
40490;BME280;26196;52.302;10.572;2023-02-22T21:00:30;100279.09;;;14.97;55.71
40490;BME280;26196;52.302;10.572;2023-02-22T21:05:07;100283.34;;;15.00;55.66
40490;BME280;26196;52.302;10.572;2023-02-22T21:09:14;100279.88;;;14.99;55.42
40490;BME280;26196;52.302;10.572;2023-02-22T21:13:14;100265.13;;;14.95;55.05
40490;BME280;26196;52.302;10.572;2023-02-22T21:17:49;100275.66;;;14.95;55.08
40490;BME280;26196;52.302;10.572;2023-02-22T21:21:51;100278.34;;;14.94;55.09
40490;BME280;26196;52.302;10.572;2023-02-22T21:30:28;100260.06;;;14.91;55.17
40490;BME280;26196;52.302;10.572;2023-02-22T21:34:29;100258.38;;;14.90;54.96
40490;BME280;26196;52.302;10.572;2023-02-22T21:39:03;100263.84;;;14.85;55.05
40490;BME280;26196;52.302;10.572;2023-02-22T21:43:16;100265.88;;;14.80;54.92
40490;BME280;26196;52.302;10.572;2023-02-22T21:47:52;100265.81;;;14.81;54.92
40490;BME280;26196;52.302;10.572;2023-02-22T21:51:53;100261.38;;;14.82;54.62
40490;BME280;26196;52.302;10.572;2023-02-22T21:55:54;100247.41;;;14.80;54.40
40490;BME280;26196;52.302;10.572;2023-02-22T21:59:54;100238.09;;;14.73;54.11
40490;BME280;26196;52.302;10.572;2023-02-22T22:04:32;100256.31;;;14.77;53.99
40490;BME280;26196;52.302;10.572;2023-02-22T22:09:07;100253.16;;;14.71;53.86
40490;BME280;26196;52.302;10.572;2023-02-22T22:13:17;100249.72;;;14.69;54.08
40490;BME280;26196;52.302;10.572;2023-02-22T22:17:17;100242.84;;;14.66;53.79
40490;BME280;26196;52.302;10.572;2023-02-22T22:21:20;100246.38;;;14.65;53.67
40490;BME280;26196;52.302;10.572;2023-02-22T22:25:58;100251.78;;;14.62;53.78
40490;BME280;26196;52.302;10.572;2023-02-22T22:30:01;100242.25;;;14.59;53.24
40490;BME280;26196;52.302;10.572;2023-02-22T22:34:01;100241.41;;;14.59;53.58
40490;BME280;26196;52.302;10.572;2023-02-22T22:38:36;100235.44;;;14.55;53.78
40490;BME280;26196;52.302;10.572;2023-02-22T22:42:37;100240.84;;;14.52;53.09
40490;BME280;26196;52.302;10.572;2023-02-22T22:46:39;100236.63;;;14.48;53.02
40490;BME280;26196;52.302;10.572;2023-02-22T22:50:40;100220.34;;;14.40;53.20
40490;BME280;26196;52.302;10.572;2023-02-22T22:55:15;100240.19;;;14.47;52.98
40490;BME280;26196;52.302;10.572;2023-02-22T22:59:18;100244.75;;;14.43;52.84
40490;BME280;26196;52.302;10.572;2023-02-22T23:03:18;100247.53;;;14.40;52.71
40490;BME280;26196;52.302;10.572;2023-02-22T23:07:55;100244.94;;;14.39;52.89
40490;BME280;26196;52.302;10.572;2023-02-22T23:12:02;100243.31;;;14.36;52.79
40490;BME280;26196;52.302;10.572;2023-02-22T23:20:33;100246.88;;;14.35;52.88
40490;BME280;26196;52.302;10.572;2023-02-22T23:24:38;100247.81;;;14.34;52.47
40490;BME280;26196;52.302;10.572;2023-02-22T23:28:39;100249.66;;;14.32;52.96
40490;BME280;26196;52.302;10.572;2023-02-22T23:32:41;100244.56;;;14.29;52.94
40490;BME280;26196;52.302;10.572;2023-02-22T23:36:41;100239.50;;;14.25;52.96
40490;BME280;26196;52.302;10.572;2023-02-22T23:40:45;100249.97;;;14.26;52.60
40490;BME280;26196;52.302;10.572;2023-02-22T23:44:46;100249.03;;;14.27;52.21
40490;BME280;26196;52.302;10.572;2023-02-22T23:48:49;100253.59;;;14.23;52.86
40490;BME280;26196;52.302;10.572;2023-02-22T23:52:55;100253.50;;;14.25;52.75
40490;BME280;26196;52.302;10.572;2023-02-22T23:57:29;100257.13;;;14.22;52.58
